Data for 11/29/2017

Time Sea-Level Adjusted Pressure Absolute Pressure Temperature Relative Humidity Dew Point   
(mb) (inHg) (mb) (inHg) (C) (F) (%) (C) (F)
00:05 1013 29.91 842 24.86 2.1 35.8 47 -8.1 17.3
00:10 1012 29.88 842 24.86 2.2 36 40 -10 13.9
00:15 1013 29.91 842 24.86 2.6 36.6 46 -7.8 18
00:20 1012 29.88 842 24.86 2.1 35.8 40 -10.3 13.5
00:25 1012 29.88 842 24.86 2.8 37 39 -9.7 14.5
00:30 1012 29.88 841 24.83 2.9 37.2 42 -8.9 16
00:35 1012 29.88 842 24.86 2.8 37.1 42 -9 15.8
00:40 1012 29.88 842 24.86 3 37.4 43 -8.4 16.9
00:45 1012 29.88 842 24.86 2.7 36.9 45 -8.1 17.4
00:50 1013 29.91 842 24.86 2.4 36.4 47 -7.9 17.9
00:55 1012 29.88 842 24.86 1.7 35 52 -7 19.3
01:00 1012 29.88 842 24.86 1.2 34.2 53 -7.4 18.8
01:05 1013 29.91 842 24.86 1.5 34.7 52 -7.4 18.7
01:10 1013 29.91 842 24.86 1.9 35.4 49 -7.6 18.3
01:15 1013 29.91 842 24.86 2 35.5 55 -6.2 20.8
01:20 1013 29.91 842 24.86 1.2 34.2 58 -6.2 20.9
01:25 1013 29.91 843 24.89 1.2 34.1 56 -6.7 20
01:30 1013 29.91 843 24.89 1.7 35 55 -6.5 20.3
01:35 1013 29.91 843 24.89 1.8 35.3 55 -6.3 20.6
01:40 1013 29.91 843 24.89 1.8 35.3 54 -6.6 20.1
01:45 1014 29.94 843 24.89 2 35.7 51 -7 19.3
01:50 1014 29.94 843 24.89 2 35.7 54 -6.2 20.8
01:55 1014 29.94 843 24.89 1.5 34.7 55 -6.5 20.3
02:00 1014 29.94 843 24.89 1.1 34 54 -7.1 19.2
02:05 1014 29.94 843 24.89 1.2 34.1 55 -6.9 19.5
02:10 1014 29.94 843 24.89 1.1 34 54 -7.2 19
02:15 1014 29.94 843 24.89 1.3 34.3 54 -7 19.3
02:20 1014 29.94 843 24.89 1.4 34.5 53 -7.1 19.2
02:25 1014 29.94 843 24.89 1.4 34.5 54 -7 19.4
02:30 1014 29.94 843 24.89 1.7 35 52 -7.2 19
02:35 1014 29.94 843 24.89 2.3 36.2 52 -6.5 20.2
02:40 1014 29.94 843 24.89 2.8 37 51 -6.3 20.7
02:45 1014 29.94 843 24.89 2.9 37.2 53 -5.8 21.5
02:50 1014 29.94 843 24.89 3.1 37.5 53 -5.6 21.9
02:55 1014 29.94 843 24.89 3 37.5 56 -5 23
03:00 1014 29.94 843 24.89 2.9 37.2 58 -4.5 23.8
03:05 1014 29.94 843 24.89 2.8 37 60 -4.1 24.6
03:10 1014 29.94 843 24.89 2.6 36.7 62 -3.9 24.9
03:15 1014 29.94 843 24.89 2.5 36.4 63 -3.8 25.2
03:20 1014 29.94 843 24.89 2.4 36.3 64 -3.7 25.3
03:25 1014 29.94 843 24.89 2.3 36.2 63 -3.9 25
03:30 1014 29.94 843 24.89 2.5 36.4 62 -4.1 24.6
03:35 1014 29.94 843 24.89 2.6 36.7 62 -4 24.8
03:40 1014 29.94 843 24.89 2.6 36.6 62 -4.1 24.7
03:45 1014 29.94 843 24.89 2.6 36.6 63 -3.9 25.1
03:50 1014 29.94 843 24.89 2.5 36.4 63 -3.9 25
03:55 1014 29.94 843 24.89 2.4 36.3 64 -3.6 25.4
04:00 1014 29.94 843 24.89 2.2 36 65 -3.6 25.5
04:05 1014 29.94 843 24.89 2.1 35.8 65 -3.7 25.4
04:10 1014 29.94 843 24.89 2.1 35.9 65 -3.7 25.3
04:15 1014 29.94 844 24.92 2.2 36 65 -3.7 25.3
04:20 1015 29.97 844 24.92 2 35.6 69 -3.2 26.3
04:25 1015 29.97 844 24.92 1.3 34.3 81 -1.7 28.9
04:30 1015 29.97 844 24.92 0.3 32.6 85 -1.9 28.6
04:35 1015 29.97 844 24.92 0 32 87 -1.9 28.6
04:40 1015 29.97 844 24.92 -0.2 31.7 89 -1.8 28.8
04:45 1015 29.97 845 24.95 -0.6 30.9 91 -1.9 28.5
04:50 1016 30 845 24.95 -0.9 30.4 92 -2 28.3
04:55 1016 30 845 24.95 -1 30.2 93 -2.1 28.3
05:00 1016 30 845 24.95 -1 30.1 93 -2 28.4
05:05 1016 30 845 24.95 -1.1 30.1 93 -2 28.3
05:10 1016 30 845 24.95 -1.2 29.8 93 -2.1 28.1
05:15 1016 30 845 24.95 -1.3 29.6 94 -2.2 28
05:20 1016 30 846 24.98 -1.3 29.6 94 -2.2 28
05:25 1016 30 846 24.98 -1.4 29.5 94 -2.3 27.9
05:30 1016 30 845 24.95 -1.4 29.4 94 -2.3 27.9
05:35 1017 30.03 846 24.98 -1.4 29.6 93 -2.3 27.9
05:40 1017 30.03 846 24.98 -1.4 29.6 93 -2.3 27.8
05:45 1017 30.03 846 24.98 -1.3 29.6 93 -2.3 27.8
05:50 1017 30.03 846 24.98 -1.2 29.9 92 -2.4 27.7
05:55 1017 30.03 846 24.98 -1 30.2 91 -2.4 27.7
06:00 1017 30.03 846 24.98 -0.8 30.5 88 -2.6 27.3
06:05 1017 30.03 847 25.01 -0.8 30.6 83 -3.3 26
06:10 1017 30.03 847 25.01 -0.7 30.8 79 -3.9 25
06:15 1018 30.06 847 25.01 -0.6 31 74 -4.6 23.7
06:20 1018 30.06 847 25.01 -0.5 31.1 68 -5.6 21.9
06:25 1018 30.06 847 25.01 -0.4 31.2 67 -5.8 21.6
06:30 1018 30.06 847 25.01 -0.4 31.2 62 -6.7 19.9
06:35 1018 30.06 847 25.01 -0.1 31.7 62 -6.5 20.3
06:40 1018 30.06 847 25.01 -0.2 31.7 60 -7 19.4
06:45 1018 30.06 847 25.01 -0.1 31.9 60 -7 19.4
06:50 1018 30.06 847 25.01 -0.1 31.8 57 -7.7 18.2
06:55 1018 30.06 848 25.04 -0 31.9 57 -7.7 18.2
07:00 1019 30.09 848 25.04 -0.2 31.7 56 -7.9 17.8
07:05 1019 30.09 848 25.04 -0.3 31.5 57 -7.9 17.8
07:10 1019 30.09 848 25.04 -0.4 31.2 56 -8.2 17.3
07:15 1019 30.09 848 25.04 -0.5 31 51 -9.4 15
07:20 1019 30.09 849 25.07 -0.1 31.8 48 -9.8 14.3
07:25 1019 30.09 849 25.07 0.1 32.1 47 -9.9 14.3
07:30 1020 30.12 849 25.07 0 32.1 46 -10.1 13.8
07:35 1020 30.12 849 25.07 -0.1 31.9 48 -9.7 14.6
07:40 1020 30.12 849 25.07 -0.4 31.3 50 -9.5 14.9
07:45 1020 30.12 849 25.07 -0.8 30.6 51 -9.7 14.6
07:50 1020 30.12 849 25.07 -0.9 30.4 51 -9.8 14.4
07:55 1020 30.12 849 25.07 -0.9 30.4 51 -9.7 14.5
08:00 1020 30.12 849 25.07 -0.9 30.4 51 -9.8 14.4
08:05 1020 30.12 850 25.1 -0.9 30.4 51 -9.8 14.3
08:10 1020 30.12 850 25.1 -0.8 30.5 51 -9.8 14.4
08:15 1021 30.15 850 25.1 -0.8 30.6 51 -9.7 14.5
08:20 1021 30.15 850 25.1 -0.9 30.4 51 -9.8 14.4
08:25 1021 30.15 850 25.1 -1 30.2 51 -10 14.1
08:30 1021 30.15 850 25.1 -1 30.1 52 -9.8 14.4
08:35 1021 30.15 850 25.1 -1.1 29.9 52 -9.9 14.2
08:40 1021 30.15 850 25.1 -1.1 30 51 -10 13.9
08:45 1022 30.18 851 25.13 -1.2 29.9 51 -9.9 14.1
08:50 1022 30.18 851 25.13 -1.2 29.9 51 -10.1 13.8
08:55 1022 30.18 851 25.13 -1.1 30 51 -9.9 14.2
09:00 1022 30.18 851 25.13 -1.1 30 51 -10.1 13.8
09:05 1022 30.18 851 25.13 -1 30.1 51 -9.8 14.3
09:10 1022 30.18 852 25.16 -0.9 30.4 52 -9.5 15
09:15 1022 30.18 852 25.16 -0.7 30.7 50 -9.9 14.1
09:20 1023 30.21 852 25.16 -0.3 31.5 47 -10.1 13.7
09:25 1023 30.21 852 25.16 -0 32 47 -10.1 13.9
09:30 1023 30.21 852 25.16 0.1 32.1 47 -10 14
09:35 1023 30.21 852 25.16 0.2 32.4 46 -10.2 13.7
09:40 1023 30.21 852 25.16 0.4 32.6 46 -10 14.1
09:45 1023 30.21 853 25.19 0.4 32.7 46 -9.9 14.3
09:50 1023 30.21 853 25.19 0.5 33 44 -10.3 13.4
09:55 1024 30.24 853 25.19 0.6 33.1 45 -10 14
10:00 1024 30.24 853 25.19 0.6 33.1 45 -10 14
10:05 1024 30.24 853 25.19 0.7 33.3 46 -9.5 14.8
10:10 1024 30.24 853 25.19 0.8 33.4 44 -10.1 13.8
10:15 1024 30.24 853 25.19 0.8 33.4 43 -10.5 13.1
10:20 1024 30.24 853 25.19 0.8 33.4 44 -10.3 13.5
10:25 1024 30.24 853 25.19 0.7 33.3 44 -10.2 13.7
10:30 1024 30.24 853 25.19 0.8 33.4 45 -9.9 14.1
10:35 1024 30.24 853 25.19 0.9 33.6 43 -10.3 13.5
10:40 1024 30.24 853 25.19 1 33.7 43 -10.3 13.5
10:45 1024 30.24 853 25.19 1.1 34.1 41 -10.8 12.6
10:50 1024 30.24 853 25.19 1.2 34.2 43 -10.2 13.7
10:55 1024 30.24 853 25.19 1.3 34.4 44 -9.7 14.5
11:00 1024 30.24 853 25.19 1.3 34.3 43 -10 14.1
11:05 1024 30.24 853 25.19 1.2 34.2 41 -10.5 13.1
11:10 1024 30.24 853 25.19 1.4 34.5 39 -11.3 11.7
11:15 1024 30.24 853 25.19 1.6 34.9 42 -10 14
11:20 1024 30.24 854 25.22 1.8 35.2 39 -10.7 12.8
11:25 1024 30.24 854 25.22 2.3 36.1 38 -10.5 13
11:30 1025 30.27 854 25.22 2.1 35.9 36 -11.5 11.3
11:35 1025 30.27 854 25.22 2.5 36.5 36 -11 12.2
11:40 1025 30.27 854 25.22 2.3 36.2 37 -11.1 12.1
11:45 1024 30.24 854 25.22 2.3 36.2 38 -10.5 13.1
11:50 1025 30.27 854 25.22 3 37.3 35 -10.9 12.3
11:55 1025 30.27 854 25.22 3.2 37.8 33 -11.5 11.4
12:00 1025 30.27 854 25.22 3.4 38 34 -11.1 12.1
12:05 1025 30.27 854 25.22 3.4 38.1 34 -11 12.1
12:10 1025 30.27 854 25.22 3.6 38.4 35 -10.3 13.4
12:15 1025 30.27 854 25.22 4.1 39.4 34 -10.6 13
12:20 1025 30.27 854 25.22 4.4 39.9 33 -10.5 13.2
12:25 1025 30.27 854 25.22 4.3 39.7 33 -10.5 13.1
12:30 1025 30.27 854 25.22 4.4 39.9 30 -11.5 11.2
12:35 1025 30.27 854 25.22 4 39.1 32 -11.2 11.9
12:40 1025 30.27 854 25.22 3.6 38.5 35 -10.6 12.9
12:45 1025 30.27 854 25.22 3.6 38.5 33 -11.2 11.8
12:50 1025 30.27 854 25.22 4.1 39.3 33 -10.8 12.5
12:55 1025 30.27 854 25.22 4.2 39.5 33 -10.8 12.5
13:00 1025 30.27 854 25.22 3.9 39 34 -10.5 13.1
13:05 1025 30.27 854 25.22 3.7 38.7 34 -10.8 12.6
13:10 1025 30.27 854 25.22 3.8 38.9 34 -10.8 12.6
13:15 1025 30.27 854 25.22 4 39.1 32 -11.3 11.6
13:20 1025 30.27 854 25.22 3.9 39.1 34 -10.7 12.8
13:25 1025 30.27 854 25.22 4 39.3 33 -10.9 12.3
13:30 1025 30.27 854 25.22 4.1 39.3 31 -11.4 11.4
13:35 1024 30.24 854 25.22 4 39.2 32 -11.2 11.8
13:40 1024 30.24 854 25.22 4.1 39.4 32 -11.1 12.1
13:45 1024 30.24 854 25.22 4.1 39.3 33 -10.9 12.4
13:50 1024 30.24 854 25.22 4.1 39.4 32 -11.1 12
13:55 1024 30.24 854 25.22 4 39.1 33 -10.9 12.4
14:00 1024 30.24 854 25.22 4 39.2 32 -11.2 11.8
14:05 1024 30.24 854 25.22 4.6 40.2 32 -10.9 12.5
14:10 1024 30.24 854 25.22 4.7 40.4 32 -10.6 13
14:15 1024 30.24 854 25.22 4.5 40.2 33 -10.6 13
14:20 1024 30.24 854 25.22 4.5 40.2 33 -10.4 13.2
14:25 1024 30.24 854 25.22 4.8 40.7 32 -10.5 13.1
14:30 1024 30.24 854 25.22 5.1 41.2 29 -11.5 11.4
14:35 1024 30.24 854 25.22 5 41.1 29 -11.6 11.1
14:40 1025 30.27 854 25.22 5.2 41.3 28 -11.7 10.9
14:45 1025 30.27 854 25.22 4.9 40.8 29 -11.8 10.7
14:50 1025 30.27 854 25.22 4.9 40.8 29 -11.7 11
14:55 1025 30.27 854 25.22 4.6 40.3 29 -11.9 10.6
15:00 1025 30.27 854 25.22 4.3 39.8 30 -11.8 10.8
15:05 1025 30.27 854 25.22 4.2 39.5 32 -11.2 11.9
15:10 1025 30.27 854 25.22 4.4 40 32 -10.7 12.7
15:15 1025 30.27 854 25.22 4.6 40.3 31 -11.1 12
15:20 1025 30.27 854 25.22 4.3 39.8 32 -11.1 12
15:25 1025 30.27 854 25.22 4.3 39.7 32 -11 12.2
15:30 1025 30.27 854 25.22 4.3 39.7 33 -10.6 12.9
15:35 1025 30.27 854 25.22 4.3 39.7 33 -10.7 12.8
15:40 1025 30.27 854 25.22 4 39.1 33 -11.1 12.1
15:45 1025 30.27 854 25.22 3.9 38.9 32 -11.3 11.6
15:50 1025 30.27 854 25.22 3.9 39.1 33 -10.8 12.6
15:55 1025 30.27 854 25.22 3.9 39.1 35 -10.3 13.4
16:00 1025 30.27 854 25.22 3.6 38.6 35 -10.4 13.2
16:05 1025 30.27 854 25.22 3.3 37.9 35 -10.7 12.7
16:10 1025 30.27 854 25.22 3.2 37.7 36 -10.4 13.3
16:15 1025 30.27 854 25.22 2.7 36.8 39 -9.9 14.1
16:20 1025 30.27 854 25.22 2.4 36.3 38 -10.6 12.9
16:25 1025 30.27 854 25.22 2.2 36 38 -10.9 12.5
16:30 1025 30.27 854 25.22 2.1 35.8 38 -10.9 12.4
16:35 1025 30.27 854 25.22 2.1 35.7 39 -10.6 12.9
16:40 1025 30.27 854 25.22 1.9 35.5 39 -10.5 13
16:45 1025 30.27 854 25.22 1.7 35.1 41 -10.2 13.6
16:50 1025 30.27 854 25.22 1.5 34.6 42 -10.2 13.6
16:55 1025 30.27 854 25.22 1.4 34.5 42 -10.1 13.7
17:00 1025 30.27 854 25.22 1.3 34.3 43 -10 13.9
17:05 1025 30.27 854 25.22 1.1 34 43 -10.3 13.5
17:10 1025 30.27 854 25.22 1.1 33.9 41 -10.6 12.8
17:15 1025 30.27 854 25.22 0.9 33.7 43 -10.3 13.4
17:20 1025 30.27 854 25.22 0.5 32.9 43 -10.8 12.6
17:25 1025 30.27 854 25.22 0.4 32.7 43 -10.9 12.3
17:30 1025 30.27 854 25.22 0.4 32.7 44 -10.4 13.4
17:35 1025 30.27 854 25.22 0.1 32.2 47 -10 14
17:40 1025 30.27 854 25.22 -0.3 31.5 49 -9.7 14.5
17:45 1025 30.27 854 25.22 -1.1 30.1 51 -10 14
17:50 1025 30.27 854 25.22 -0.7 30.7 48 -10.5 13.1
17:55 1025 30.27 854 25.22 -0.3 31.4 46 -10.5 13
18:00 1025 30.27 854 25.22 -0.4 31.2 46 -10.7 12.8
18:05 1025 30.27 854 25.22 -0.4 31.2 46 -10.6 13
18:10 1025 30.27 855 25.25 -0.6 30.9 48 -10.3 13.4
18:15 1025 30.27 855 25.25 -0.7 30.7 48 -10.3 13.4
18:20 1025 30.27 855 25.25 -0.7 30.8 49 -10 13.9
18:25 1025 30.27 854 25.22 -0.9 30.4 51 -9.8 14.4
18:30 1025 30.27 854 25.22 -1.3 29.6 51 -10.1 13.7
18:35 1025 30.27 854 25.22 -1.2 29.8 52 -9.8 14.4
18:40 1025 30.27 855 25.25 -1.3 29.7 53 -9.7 14.5
18:45 1025 30.27 855 25.25 -1.2 29.8 53 -9.7 14.6
18:50 1025 30.27 855 25.25 -1.2 29.9 55 -9.1 15.6
18:55 1025 30.27 855 25.25 -2 28.4 60 -8.8 16.2
19:00 1025 30.27 855 25.25 -2.8 26.9 63 -8.9 16
19:05 1025 30.27 855 25.25 -2.9 26.7 64 -8.9 16
19:10 1025 30.27 855 25.25 -2.8 26.9 62 -9.2 15.4
19:15 1025 30.27 855 25.25 -2.6 27.3 59 -9.6 14.8
19:20 1025 30.27 855 25.25 -2.5 27.5 60 -9.2 15.4
19:25 1026 30.3 855 25.25 -2.3 27.8 60 -9.1 15.6
19:30 1026 30.3 855 25.25 -2.2 28 59 -9.3 15.3
19:35 1026 30.3 855 25.25 -2.1 28.2 57 -9.4 15
19:40 1026 30.3 855 25.25 -2.1 28.2 57 -9.5 14.8
19:45 1026 30.3 855 25.25 -2 28.4 55 -9.9 14.1
19:50 1026 30.3 855 25.25 -1.9 28.6 53 -10.4 13.3
19:55 1026 30.3 855 25.25 -1.7 29 53 -10 14
20:00 1026 30.3 855 25.25 -1.8 28.7 56 -9.4 15
20:05 1026 30.3 855 25.25 -2.6 27.3 57 -10 14.1
20:10 1026 30.3 855 25.25 -2.6 27.3 54 -10.6 13
20:15 1026 30.3 855 25.25 -2.6 27.4 56 -10.1 13.8
20:20 1026 30.3 855 25.25 -2.7 27.1 57 -10.2 13.7
20:25 1026 30.3 855 25.25 -2.8 26.9 58 -9.9 14.2
20:30 1026 30.3 855 25.25 -2.9 26.8 61 -9.5 15
20:35 1026 30.3 855 25.25 -3.2 26.2 59 -10.1 13.8
20:40 1026 30.3 855 25.25 -3.2 26.2 60 -9.9 14.3
20:45 1026 30.3 855 25.25 -3.4 25.9 61 -9.8 14.4
20:50 1025 30.27 855 25.25 -3.6 25.5 62 -10 14.1
20:55 1025 30.27 855 25.25 -3.3 26 60 -10 13.9
21:00 1025 30.27 855 25.25 -3.5 25.7 61 -10 14
21:05 1025 30.27 854 25.22 -3.6 25.5 62 -9.9 14.2
21:10 1025 30.27 855 25.25 -3.5 25.6 63 -9.6 14.8
21:15 1025 30.27 855 25.25 -3.6 25.5 62 -10 14.1
21:20 1025 30.27 854 25.22 -3.8 25.1 61 -10.2 13.6
21:25 1025 30.27 854 25.22 -4.1 24.7 63 -10.1 13.8
21:30 1025 30.27 854 25.22 -3.7 25.4 60 -10.4 13.3
21:35 1025 30.27 854 25.22 -3.5 25.7 61 -10 14
21:40 1025 30.27 854 25.22 -3.5 25.8 60 -10.1 13.9
21:45 1025 30.27 854 25.22 -3.8 25.2 62 -10 14
21:50 1025 30.27 854 25.22 -3.9 25 62 -10.1 13.9
21:55 1025 30.27 854 25.22 -4 24.8 62 -10.3 13.5
22:00 1025 30.27 854 25.22 -4.1 24.7 60 -10.6 12.9
22:05 1025 30.27 854 25.22 -4.1 24.5 62 -10.3 13.4
22:10 1025 30.27 854 25.22 -4.6 23.6 65 -10.3 13.5
22:15 1025 30.27 854 25.22 -4.7 23.6 65 -10.2 13.7
22:20 1025 30.27 854 25.22 -4.5 23.9 62 -10.6 12.9
22:25 1025 30.27 854 25.22 -4.4 24 62 -10.6 12.8
22:30 1025 30.27 854 25.22 -4.6 23.7 64 -10.4 13.3
22:35 1025 30.27 854 25.22 -4.5 23.8 67 -9.7 14.5
22:40 1025 30.27 854 25.22 -4.4 24.2 61 -10.7 12.7
22:45 1025 30.27 854 25.22 -4.3 24.2 61 -10.8 12.5
22:50 1025 30.27 854 25.22 -4.3 24.3 62 -10.5 13.2
22:55 1025 30.27 854 25.22 -4.6 23.8 63 -10.5 13
23:00 1025 30.27 854 25.22 -4.8 23.4 65 -10.4 13.4
23:05 1025 30.27 854 25.22 -4.7 23.5 66 -10.2 13.6
23:10 1025 30.27 854 25.22 -4.7 23.5 65 -10.4 13.3
23:15 1025 30.27 854 25.22 -4.7 23.6 64 -10.4 13.2
23:20 1025 30.27 854 25.22 -4.6 23.7 63 -10.7 12.8
23:25 1025 30.27 854 25.22 -4.8 23.4 63 -10.8 12.6
23:30 1025 30.27 854 25.22 -5.1 22.9 64 -10.9 12.3
23:35 1025 30.27 854 25.22 -5.2 22.6 65 -10.9 12.4
23:40 1025 30.27 854 25.22 -5.1 22.8 64 -10.8 12.5
23:45 1025 30.27 854 25.22 -4.9 23.2 63 -10.9 12.3
23:50 1025 30.27 854 25.22 -4.8 23.3 64 -10.7 12.8
23:55 1025 30.27 854 25.22 -5.1 22.8 64 -10.9 12.4
24:00 1025 30.27 854 25.22 -5.3 22.4 65 -11 12.2